Bassett, Wisconsin
Current Conditions -  °F | °C
As of 2:35 PM on Thursday 29 Jan 2015 (Local Time) from KBUU Reporting Station
Overcast Overcast  
Wind Chill: 19°   Ceiling: 2200
Heat Index: 32°   Visibility: 10mi
Dew Point: 26°   Wind: 22mph
Humidity: 77%   Direction: 320°NW
Pressure: 30"   Gusts: NA
Location:  42.54°N, 88.23°W
Report Text: KBUU 292035Z AUTO 32019KT 10SM OVC022 00/M04 A3000 RMK AO2 T00001036
Loading
Personal Weather Stations






























Interactive Weather Map New forecast layout! Learn more

10-Day Weather Forecast

Advertisements
Track Severe Weather on mobile